createdAt,value
2018-08-22T00:02:00.957Z,99124.74
2018-08-22T00:04:29.884Z,99131.16
2018-08-22T00:06:58.783Z,99129.45
2018-08-22T00:09:27.753Z,99126.95
2018-08-22T00:11:56.732Z,99130.30
2018-08-22T00:14:25.658Z,99129.82
2018-08-22T00:16:54.573Z,99128.48
2018-08-22T00:19:23.610Z,99136.45
2018-08-22T00:21:52.532Z,99133.65
2018-08-22T00:24:21.378Z,99132.28
2018-08-22T00:26:50.242Z,99128.28
2018-08-22T00:29:19.283Z,99135.38
2018-08-22T00:31:48.106Z,99123.87
2018-08-22T00:34:17.078Z,99131.34
2018-08-22T00:36:46.180Z,99133.56
2018-08-22T00:39:15.100Z,99133.73
2018-08-22T00:41:44.035Z,99133.27
2018-08-22T00:44:13.787Z,99129.11
2018-08-22T00:46:42.754Z,99132.78
2018-08-22T00:49:11.751Z,99130.70
2018-08-22T00:51:40.631Z,99130.22
2018-08-22T00:54:09.579Z,99137.88
2018-08-22T00:56:38.522Z,99138.95
2018-08-22T00:59:07.433Z,99141.25
2018-08-22T01:01:36.317Z,99141.29
2018-08-22T01:04:05.191Z,99139.84
2018-08-22T01:06:34.037Z,99136.52
2018-08-22T01:09:02.968Z,99144.98
2018-08-22T01:11:31.906Z,99146.39
2018-08-22T01:14:00.870Z,99148.16
2018-08-22T01:16:29.778Z,99154.02
2018-08-22T01:18:58.748Z,99157.22
2018-08-22T01:21:27.630Z,99154.09
2018-08-22T01:23:56.548Z,99153.62
2018-08-22T01:26:25.444Z,99153.03
2018-08-22T01:28:54.352Z,99161.20
2018-08-22T01:31:23.400Z,99158.07
2018-08-22T01:33:52.481Z,99153.16
2018-08-22T01:36:21.416Z,99154.33
2018-08-22T01:38:50.339Z,99153.47
2018-08-22T01:41:19.261Z,99151.80
2018-08-22T01:43:48.185Z,99147.69
2018-08-22T01:46:17.060Z,99155.95
2018-08-22T01:48:46.019Z,99148.78
2018-08-22T01:51:14.935Z,99148.55
2018-08-22T01:53:43.847Z,99148.94
2018-08-22T01:56:12.735Z,99146.16
2018-08-22T01:58:41.622Z,99150.13
2018-08-22T02:01:10.508Z,99144.62
2018-08-22T02:03:39.387Z,99144.19
2018-08-22T02:06:08.248Z,99141.34
2018-08-22T02:08:37.178Z,99142.04
2018-08-22T02:11:06.151Z,99150.13
2018-08-22T02:13:34.961Z,99140.07
2018-08-22T02:16:03.935Z,99141.24
2018-08-22T02:18:32.878Z,99145.14
2018-08-22T02:21:01.828Z,99143.14
2018-08-22T02:23:30.663Z,99148.77
2018-08-22T02:25:59.578Z,99151.47
2018-08-22T02:28:28.466Z,99147.35
2018-08-22T02:30:57.387Z,99151.62
2018-08-22T02:33:26.287Z,99148.44
2018-08-22T02:35:55.211Z,99148.07
2018-08-22T02:38:24.122Z,99148.25
2018-08-22T02:40:54.872Z,99151.66
2018-08-22T02:43:23.902Z,99153.41
2018-08-22T02:45:52.772Z,99149.47
2018-08-22T02:48:21.672Z,99150.03
2018-08-22T02:50:50.520Z,99140.16
2018-08-22T02:53:19.393Z,99147.45
2018-08-22T02:55:48.286Z,99150.19
2018-08-22T02:58:17.158Z,99145.77
2018-08-22T03:00:46.008Z,99148.09
2018-08-22T03:03:14.934Z,99153.98
2018-08-22T03:05:43.748Z,99149.77
2018-08-22T03:08:13.520Z,99150.04
2018-08-22T03:10:42.412Z,99159.46
2018-08-22T03:13:11.481Z,99153.73
2018-08-22T03:15:40.363Z,99154.55
2018-08-22T03:18:09.221Z,99152.62
2018-08-22T03:20:38.049Z,99148.92
2018-08-22T03:23:06.888Z,99153.24
2018-08-22T03:25:35.680Z,99157.88
2018-08-22T03:28:04.461Z,99156.66
2018-08-22T03:30:33.233Z,99156.22
2018-08-22T03:33:02.125Z,99160.44
2018-08-22T03:35:30.992Z,99162.37
2018-08-22T03:37:59.770Z,99167.02
2018-08-22T03:40:28.577Z,99170.67
2018-08-22T03:42:57.486Z,99173.35
2018-08-22T03:45:26.298Z,99175.94
2018-08-22T03:47:55.220Z,99176.91
2018-08-22T03:50:24.054Z,99176.30
2018-08-22T03:52:52.842Z,99178.08
2018-08-22T03:55:21.745Z,99176.38
2018-08-22T03:57:50.583Z,99177.12
2018-08-22T04:00:19.419Z,99185.75
2018-08-22T04:02:48.275Z,99186.31
2018-08-22T04:05:17.093Z,99186.26
2018-08-22T04:07:45.911Z,99187.93
2018-08-22T04:10:14.730Z,99194.63
2018-08-22T04:12:43.496Z,99197.30
2018-08-22T04:15:12.323Z,99202.22
2018-08-22T04:17:41.714Z,99202.36
2018-08-22T04:20:10.621Z,99201.39
2018-08-22T04:22:40.320Z,99205.97
2018-08-22T04:25:09.599Z,99196.08
2018-08-22T04:27:38.405Z,99201.95
2018-08-22T04:30:07.271Z,99203.81
2018-08-22T04:32:36.122Z,99210.05
2018-08-22T04:35:04.938Z,99209.05
2018-08-22T04:37:33.699Z,99206.63
2018-08-22T04:40:02.520Z,99207.03
2018-08-22T04:42:31.288Z,99203.30
2018-08-22T04:45:00.080Z,99212.03
2018-08-22T04:47:28.904Z,99212.80
2018-08-22T04:49:57.694Z,99215.97
2018-08-22T04:52:26.497Z,99223.53
2018-08-22T04:54:55.326Z,99225.44
2018-08-22T04:57:24.110Z,99214.74
2018-08-22T04:59:52.908Z,99221.88
2018-08-22T05:02:21.705Z,99218.66
2018-08-22T05:04:50.495Z,99215.92
2018-08-22T05:07:19.495Z,99218.92
2018-08-22T05:09:48.310Z,99219.38
2018-08-22T05:12:17.113Z,99217.47
2018-08-22T05:14:45.979Z,99217.09
2018-08-22T05:17:14.846Z,99222.91
2018-08-22T05:19:43.644Z,99223.17
2018-08-22T05:22:12.404Z,99233.20
2018-08-22T05:24:41.295Z,99221.85
2018-08-22T05:27:10.695Z,99224.39
2018-08-22T05:29:39.516Z,99223.25
2018-08-22T05:32:08.347Z,99227.02
2018-08-22T05:34:37.212Z,99226.30
2018-08-22T05:37:06.019Z,99226.09
2018-08-22T05:39:34.863Z,99224.63
2018-08-22T05:42:03.698Z,99229.58
2018-08-22T05:44:32.523Z,99230.28
2018-08-22T05:47:01.337Z,99226.55
2018-08-22T05:49:30.147Z,99222.23
2018-08-22T05:51:58.987Z,99225.27
2018-08-22T05:54:27.850Z,99220.44
2018-08-22T05:56:56.747Z,99228.97
2018-08-22T05:59:25.569Z,99220.14
2018-08-22T06:01:54.418Z,99215.30
2018-08-22T06:04:23.286Z,99226.55
2018-08-22T06:06:52.113Z,99225.45
2018-08-22T06:09:20.977Z,99216.72
2018-08-22T06:11:49.787Z,99217.66
2018-08-22T06:14:18.610Z,99220.42
2018-08-22T06:16:48.245Z,99223.50
2018-08-22T06:19:17.087Z,99221.86
2018-08-22T06:21:45.959Z,99227.22
2018-08-22T06:24:14.810Z,99224.81
2018-08-22T06:26:43.629Z,99223.06
2018-08-22T06:29:12.483Z,99227.99
2018-08-22T06:31:41.318Z,99230.15
2018-08-22T06:34:10.155Z,99228.91
2018-08-22T06:36:38.963Z,99230.45
2018-08-22T06:39:09.646Z,99213.59
2018-08-22T06:41:38.560Z,99235.33
2018-08-22T06:44:07.508Z,99237.94
2018-08-22T06:46:36.363Z,99234.69
2018-08-22T06:49:05.261Z,99240.88
2018-08-22T06:51:34.074Z,99239.04
2018-08-22T06:54:02.914Z,99237.30
2018-08-22T06:56:31.734Z,99234.36
2018-08-22T06:59:00.580Z,99237.37
2018-08-22T07:01:29.450Z,99238.87
2018-08-22T07:03:58.285Z,99232.64
2018-08-22T07:06:27.132Z,99230.80
2018-08-22T07:08:56.021Z,99234.92
2018-08-22T07:11:24.881Z,99236.59
2018-08-22T07:13:53.683Z,99232.50
2018-08-22T07:16:22.533Z,99234.70
2018-08-22T07:18:51.375Z,99236.35
2018-08-22T07:21:20.228Z,99237.46
2018-08-22T07:23:49.078Z,99238.31
2018-08-22T07:26:18.751Z,99232.50
2018-08-22T07:28:47.598Z,99227.73
2018-08-22T07:31:16.441Z,99231.30
2018-08-22T07:33:45.276Z,99234.64
2018-08-22T07:36:14.117Z,99240.42
2018-08-22T07:38:42.995Z,99226.98
2018-08-22T07:41:11.812Z,99220.19
2018-08-22T07:43:40.629Z,99224.16
2018-08-22T07:46:09.467Z,99226.36
2018-08-22T07:48:38.557Z,99228.34
2018-08-22T07:51:07.402Z,99226.19
2018-08-22T07:53:36.308Z,99221.71
2018-08-22T07:56:05.154Z,99219.94
2018-08-22T07:58:33.977Z,99217.35
2018-08-22T08:01:02.816Z,99221.36
2018-08-22T08:03:31.653Z,99216.39
2018-08-22T08:06:00.536Z,99215.22
2018-08-22T08:08:29.392Z,99210.84
2018-08-22T08:10:58.263Z,99210.77
2018-08-22T08:13:28.009Z,99211.03
2018-08-22T08:15:57.065Z,99217.83
2018-08-22T08:18:25.937Z,99216.62
2018-08-22T08:20:54.753Z,99219.30
2018-08-22T08:23:23.627Z,99211.91
2018-08-22T08:25:52.463Z,99210.50
2018-08-22T08:28:21.260Z,99208.44
2018-08-22T08:30:50.119Z,99210.95
2018-08-22T08:33:18.993Z,99207.08
2018-08-22T08:35:47.859Z,99206.67
2018-08-22T08:38:16.761Z,99197.20
2018-08-22T08:40:45.554Z,99198.44
2018-08-22T08:43:14.516Z,99195.11
2018-08-22T08:45:43.396Z,99188.31
2018-08-22T08:48:12.218Z,99191.05
2018-08-22T08:50:41.015Z,99193.80
2018-08-22T08:53:09.869Z,99191.67
2018-08-22T08:55:38.685Z,99197.72
2018-08-22T08:58:07.583Z,99191.37
2018-08-22T09:00:36.457Z,99189.46
2018-08-22T09:03:05.294Z,99193.22
2018-08-22T09:05:34.144Z,99195.94
2018-08-22T09:08:03.015Z,99191.65
2018-08-22T09:10:31.859Z,99191.38
2018-08-22T09:13:00.684Z,99195.80
2018-08-22T09:15:29.555Z,99190.45
2018-08-22T09:17:58.389Z,99178.58
2018-08-22T09:20:27.229Z,99183.57
2018-08-22T09:22:56.098Z,99188.18
2018-08-22T09:25:24.924Z,99178.02
2018-08-22T09:27:53.731Z,99174.48
2018-08-22T09:30:22.569Z,99175.93
2018-08-22T09:32:51.403Z,99172.38
2018-08-22T09:35:20.355Z,99175.95
2018-08-22T09:37:49.198Z,99172.44
2018-08-22T09:40:18.057Z,99168.55
2018-08-22T09:42:46.912Z,99169.36
2018-08-22T09:45:15.748Z,99177.81
2018-08-22T09:47:45.309Z,99159.38
2018-08-22T09:50:14.232Z,99162.51
2018-08-22T09:52:43.081Z,99160.48
2018-08-22T09:55:11.876Z,99157.47
2018-08-22T09:57:40.869Z,99156.91
2018-08-22T10:00:15.196Z,99158.50
2018-08-22T10:02:43.919Z,99165.44
2018-08-22T10:05:12.825Z,99158.28
2018-08-22T10:07:41.665Z,99148.70
2018-08-22T10:10:10.485Z,99152.53
2018-08-22T10:12:39.305Z,99139.95
2018-08-22T10:15:08.148Z,99137.92
2018-08-22T10:17:36.964Z,99136.02
2018-08-22T10:20:07.152Z,99135.75
2018-08-22T10:22:36.037Z,99133.64
2018-08-22T10:25:05.019Z,99133.39
2018-08-22T10:27:33.863Z,99125.69
2018-08-22T10:30:02.736Z,99123.63
2018-08-22T10:32:31.599Z,99122.88
2018-08-22T10:35:00.398Z,99119.53
2018-08-22T10:37:29.241Z,99123.05
2018-08-22T10:39:58.058Z,99123.08
2018-08-22T10:42:26.869Z,99118.84
2018-08-22T10:44:55.677Z,99115.11
2018-08-22T10:47:24.508Z,99103.92
2018-08-22T10:49:53.416Z,99105.52
2018-08-22T10:52:22.270Z,99101.08
2018-08-22T10:54:51.079Z,99109.05
2018-08-22T10:57:19.889Z,99103.09
2018-08-22T10:59:48.747Z,99095.48
2018-08-22T11:02:17.566Z,99092.10
2018-08-22T11:04:46.392Z,99087.33
2018-08-22T11:07:15.231Z,99090.97
2018-08-22T11:09:44.065Z,99089.90
2018-08-22T11:12:12.887Z,99082.76
2018-08-22T11:14:41.752Z,99073.09
2018-08-22T11:17:10.621Z,99077.28
2018-08-22T11:19:39.458Z,99077.41
2018-08-22T11:22:19.314Z,99082.86
2018-08-22T11:24:59.012Z,99072.70
2018-08-22T11:27:39.023Z,99069.49
2018-08-22T11:30:18.858Z,99069.42
2018-08-22T11:32:58.770Z,99069.20
2018-08-22T11:35:26.171Z,99062.28
2018-08-22T11:37:54.980Z,99066.65
2018-08-22T11:40:23.812Z,99056.53
2018-08-22T11:42:52.594Z,99052.11
2018-08-22T11:45:21.375Z,99050.41
2018-08-22T11:47:50.821Z,99047.47
2018-08-22T11:50:19.653Z,99048.66
2018-08-22T11:52:48.473Z,99052.52
2018-08-22T11:55:17.326Z,99048.52
2018-08-22T11:57:46.148Z,99046.66
2018-08-22T12:00:15.091Z,99036.23
2018-08-22T12:02:43.914Z,99042.88
2018-08-22T12:05:12.734Z,99041.17
2018-08-22T12:07:41.507Z,99040.87
2018-08-22T12:10:10.340Z,99027.07
2018-08-22T12:12:39.187Z,99027.09
2018-08-22T12:15:08.015Z,99031.10
2018-08-22T12:17:36.875Z,99032.73
2018-08-22T12:20:06.205Z,99034.28
2018-08-22T12:22:35.148Z,99024.86
2018-08-22T12:25:04.012Z,99028.30
2018-08-22T12:27:32.821Z,99025.45
2018-08-22T12:30:01.665Z,99006.95
2018-08-22T12:32:30.571Z,99022.81
2018-08-22T12:34:59.410Z,99017.72
2018-08-22T12:37:29.292Z,99014.75
2018-08-22T12:39:58.166Z,99013.59
2018-08-22T12:42:27.078Z,99013.08
2018-08-22T12:44:55.980Z,99007.13
2018-08-22T12:47:24.783Z,99010.73
2018-08-22T12:49:53.621Z,99004.83
2018-08-22T12:52:22.460Z,99012.95
2018-08-22T12:54:51.286Z,99015.41
2018-08-22T12:57:20.197Z,99002.36
2018-08-22T12:59:48.995Z,99002.31
2018-08-22T13:02:17.846Z,98997.95
2018-08-22T13:04:46.688Z,98990.59
2018-08-22T13:07:15.559Z,99000.08
2018-08-22T13:09:44.432Z,98991.94
2018-08-22T13:12:13.189Z,98989.70
2018-08-22T13:14:42.001Z,98993.19
2018-08-22T13:17:10.854Z,98982.78
2018-08-22T13:19:39.637Z,98986.08
2018-08-22T13:22:08.497Z,98987.16
2018-08-22T13:24:37.340Z,98987.08
2018-08-22T13:27:06.297Z,98981.97
2018-08-22T13:29:35.729Z,98986.25
2018-08-22T13:32:04.874Z,98975.22
2018-08-22T13:34:33.963Z,98981.67
2018-08-22T13:37:03.194Z,98975.46
2018-08-22T13:39:32.437Z,98977.50
2018-08-22T13:42:01.803Z,98981.90
2018-08-22T13:44:31.145Z,98977.61
2018-08-22T13:47:00.343Z,98969.15
2018-08-22T13:49:29.730Z,98969.20
2018-08-22T13:51:59.314Z,98973.75
2018-08-22T13:54:28.629Z,98968.57
2018-08-22T13:56:58.867Z,98967.43
2018-08-22T13:59:28.043Z,98971.53
2018-08-22T14:01:57.014Z,98966.32
2018-08-22T14:04:26.121Z,98961.73
2018-08-22T14:06:55.173Z,98958.14
2018-08-22T14:09:25.139Z,98958.53
2018-08-22T14:11:54.492Z,98953.50
2018-08-22T14:14:23.675Z,98953.59
2018-08-22T14:16:53.206Z,98947.25
2018-08-22T14:19:22.449Z,98955.38
2018-08-22T14:21:51.640Z,98950.47
2018-08-22T14:24:21.034Z,98945.45
2018-08-22T14:26:50.153Z,98948.45
2018-08-22T14:29:19.325Z,98942.67
2018-08-22T14:31:48.936Z,98942.02
2018-08-22T14:34:18.116Z,98946.82
2018-08-22T14:36:47.450Z,98950.59
2018-08-22T14:39:16.906Z,98943.67
2018-08-22T14:41:45.949Z,98945.69
2018-08-22T14:44:15.043Z,98941.14
2018-08-22T14:46:44.253Z,98941.20
2018-08-22T14:49:13.405Z,98944.77
2018-08-22T14:51:42.638Z,98945.80
2018-08-22T14:54:11.928Z,98937.50
2018-08-22T14:56:41.076Z,98940.22
2018-08-22T14:59:10.362Z,98941.62
2018-08-22T15:01:39.687Z,98941.47
2018-08-22T15:04:08.926Z,98935.85
2018-08-22T15:06:38.187Z,98937.88
2018-08-22T15:09:13.211Z,98937.17
2018-08-22T15:11:42.384Z,98938.13
2018-08-22T15:14:11.768Z,98934.09
2018-08-22T15:16:41.200Z,98933.85
2018-08-22T15:19:10.392Z,98924.09
2018-08-22T15:21:39.791Z,98919.16
2018-08-22T15:24:09.322Z,98930.27
2018-08-22T15:26:38.491Z,98931.20
2018-08-22T15:29:08.643Z,98903.17
2018-08-22T15:31:37.704Z,98931.38
2018-08-22T15:34:08.300Z,98919.41
2018-08-22T15:36:42.446Z,98925.27
2018-08-22T15:39:12.643Z,98921.83
2018-08-22T15:41:43.016Z,98927.41
2018-08-22T15:44:13.298Z,98922.22
2018-08-22T15:46:42.891Z,98926.39
2018-08-22T15:49:13.341Z,98922.44
2018-08-22T15:51:45.843Z,98922.64
2018-08-22T15:54:17.148Z,98926.40
2018-08-22T15:56:49.625Z,98925.69
2018-08-22T15:59:21.581Z,98918.37
2018-08-22T16:01:53.136Z,98916.84
2018-08-22T16:04:23.203Z,98915.07
2018-08-22T16:07:00.902Z,98914.77
2018-08-22T16:09:32.111Z,98921.15
2018-08-22T16:12:01.919Z,98914.14
2018-08-22T16:14:34.277Z,98921.73
2018-08-22T16:17:03.455Z,98919.34
2018-08-22T16:19:33.955Z,98915.64
2018-08-22T16:22:04.042Z,98920.77
2018-08-22T16:24:33.481Z,98917.00
2018-08-22T16:27:02.732Z,98925.63
2018-08-22T16:29:31.984Z,98919.41
2018-08-22T16:32:01.310Z,98923.84
2018-08-22T16:34:30.567Z,98918.82
2018-08-22T16:37:00.100Z,98888.69
2018-08-22T16:39:40.763Z,98925.94
2018-08-22T16:42:10.498Z,98925.55
2018-08-22T16:44:39.973Z,98931.41
2018-08-22T16:47:09.240Z,98925.11
2018-08-22T16:49:39.691Z,98933.23
2018-08-22T16:52:08.789Z,98939.16
2018-08-22T16:54:37.907Z,98937.69
2018-08-22T16:57:07.090Z,98939.56
2018-08-22T16:59:36.193Z,98940.78
2018-08-22T17:02:05.815Z,98946.91
2018-08-22T17:04:35.704Z,98947.63
2018-08-22T17:07:09.896Z,98953.56
2018-08-22T17:09:38.897Z,98943.86
2018-08-22T17:12:07.993Z,98954.33
2018-08-22T17:14:37.072Z,98949.53
2018-08-22T17:17:06.270Z,98952.33
2018-08-22T17:19:35.482Z,98960.85
2018-08-22T17:22:04.650Z,98959.70
2018-08-22T17:24:33.770Z,98965.72
2018-08-22T17:27:03.566Z,98967.80
2018-08-22T17:29:32.696Z,98973.89
2018-08-22T17:32:08.525Z,98968.77
2018-08-22T17:34:37.613Z,98973.27
2018-08-22T17:37:09.590Z,98979.02
2018-08-22T17:39:39.324Z,98985.56
2018-08-22T17:42:08.499Z,98994.13
2018-08-22T17:44:38.187Z,98995.17
2018-08-22T17:47:07.508Z,99006.03
2018-08-22T17:49:37.256Z,99008.00
2018-08-22T17:52:09.474Z,99010.24
2018-08-22T17:54:38.666Z,99013.50
2018-08-22T17:57:20.674Z,99010.74
2018-08-22T17:59:49.830Z,99016.65
2018-08-22T18:02:19.160Z,99027.33
2018-08-22T18:05:03.005Z,99038.94
2018-08-22T18:07:32.274Z,99043.41
2018-08-22T18:10:03.337Z,99040.80
2018-08-22T18:12:32.879Z,99054.61
2018-08-22T18:15:04.219Z,99058.38
2018-08-22T18:17:34.354Z,99068.54
2018-08-22T18:20:03.716Z,99069.52
2018-08-22T18:22:36.896Z,99077.80
2018-08-22T18:25:08.002Z,99081.00
2018-08-22T18:27:37.244Z,99087.17
2018-08-22T18:30:07.832Z,99090.83
2018-08-22T18:32:38.223Z,99048.44
2018-08-22T18:35:12.302Z,99096.11
2018-08-22T18:37:42.865Z,99106.12
2018-08-22T18:40:18.942Z,99112.20
2018-08-22T18:42:50.124Z,99115.06
2018-08-22T18:45:20.041Z,99108.41
2018-08-22T18:47:49.188Z,99119.94
2018-08-22T18:50:18.729Z,99118.61
2018-08-22T18:52:56.033Z,99126.38
2018-08-22T18:55:30.462Z,99134.97
2018-08-22T18:58:01.261Z,99139.36
2018-08-22T19:00:31.002Z,99142.72
2018-08-22T19:03:00.172Z,99144.68
2018-08-22T19:05:32.488Z,99140.38
2018-08-22T19:08:05.866Z,99141.88
2018-08-22T19:10:36.987Z,99147.20
2018-08-22T19:13:11.403Z,99109.12
2018-08-22T19:15:40.610Z,99153.15
2018-08-22T19:18:10.631Z,99151.50
2018-08-22T19:20:40.059Z,99157.59
2018-08-22T19:23:09.300Z,99156.22
2018-08-22T19:25:39.056Z,99151.27
2018-08-22T19:28:08.382Z,99153.23
2018-08-22T19:30:39.089Z,99156.22
2018-08-22T19:33:13.471Z,99160.30
2018-08-22T19:35:44.867Z,99159.50
2018-08-22T19:38:23.893Z,99161.13
2018-08-22T19:40:53.182Z,99160.61
2018-08-22T19:43:22.442Z,99165.09
2018-08-22T19:45:51.787Z,99157.97
2018-08-22T19:48:22.607Z,99162.13
2018-08-22T19:50:52.973Z,99155.55
2018-08-22T19:53:22.467Z,99149.88
2018-08-22T19:55:52.138Z,99151.58
2018-08-22T19:58:28.402Z,99158.73
2018-08-22T20:00:59.130Z,99154.61
2018-08-22T20:03:32.351Z,99154.88
2018-08-22T20:06:01.826Z,99150.49
2018-08-22T20:08:35.044Z,99148.84
2018-08-22T20:11:04.421Z,99141.41
2018-08-22T20:13:46.974Z,99150.77
2018-08-22T20:16:18.158Z,99154.31
2018-08-22T20:18:50.215Z,99144.70
2018-08-22T20:21:30.548Z,99149.38
2018-08-22T20:24:00.315Z,99142.75
2018-08-22T20:26:30.219Z,99144.14
2018-08-22T20:29:01.279Z,99140.05
2018-08-22T20:31:30.606Z,99144.45
2018-08-22T20:34:17.336Z,99145.00
2018-08-22T20:36:50.587Z,99099.03
2018-08-22T20:39:19.780Z,99146.38
2018-08-22T20:41:51.201Z,99145.54
2018-08-22T20:44:22.154Z,99094.59
2018-08-22T20:46:51.370Z,99147.73
2018-08-22T20:49:21.680Z,99146.64
2018-08-22T20:51:50.870Z,99152.69
2018-08-22T20:54:25.107Z,99151.04
2018-08-22T20:56:59.415Z,99148.29
2018-08-22T20:59:28.565Z,99144.98
2018-08-22T21:02:07.637Z,99154.88
2018-08-22T21:04:37.293Z,99131.47
2018-08-22T21:07:06.815Z,99152.27
2018-08-22T21:09:36.090Z,99161.72
2018-08-22T21:12:05.607Z,99159.84
2018-08-22T21:14:34.987Z,99167.80
2018-08-22T21:17:04.791Z,99170.70
2018-08-22T21:19:34.111Z,99171.19
2018-08-22T21:22:06.438Z,99170.23
2018-08-22T21:24:35.778Z,99178.17
2018-08-22T21:27:04.816Z,99172.64
2018-08-22T21:29:34.174Z,99177.23
2018-08-22T21:32:03.425Z,99176.94
2018-08-22T21:34:32.776Z,99178.46
2018-08-22T21:37:02.696Z,99176.52
2018-08-22T21:39:33.864Z,99185.44
2018-08-22T21:42:03.376Z,99178.69
2018-08-22T21:44:33.159Z,99186.98
2018-08-22T21:47:07.324Z,99182.73
2018-08-22T21:49:36.623Z,99181.22
2018-08-22T21:52:05.868Z,99181.08
2018-08-22T21:54:35.292Z,99177.66
2018-08-22T21:57:04.662Z,99174.31
2018-08-22T21:59:33.863Z,99177.05
2018-08-22T22:02:07.214Z,99172.38
2018-08-22T22:04:37.720Z,99172.34
2018-08-22T22:07:08.133Z,99169.05
2018-08-22T22:09:38.372Z,99179.56
2018-08-22T22:12:13.071Z,99186.19
2018-08-22T22:14:46.189Z,99185.13
2018-08-22T22:17:15.772Z,99182.56
2018-08-22T22:19:44.978Z,99187.06
2018-08-22T22:22:14.150Z,99189.28
2018-08-22T22:24:47.643Z,99185.11
2018-08-22T22:27:16.805Z,99180.33
2018-08-22T22:29:46.129Z,99191.14
2018-08-22T22:32:15.285Z,99184.78
2018-08-22T22:34:44.742Z,99182.27
2018-08-22T22:37:13.959Z,99178.63
2018-08-22T22:39:44.770Z,99182.33
2018-08-22T22:42:19.311Z,99181.42
2018-08-22T22:44:51.231Z,99182.82
2018-08-22T22:47:25.930Z,99183.49
2018-08-22T22:49:55.490Z,99178.74
2018-08-22T22:52:30.870Z,99182.33
2018-08-22T22:55:01.273Z,99178.19
2018-08-22T22:57:32.370Z,99183.70
2018-08-22T23:00:02.219Z,99184.48
2018-08-22T23:02:32.178Z,99180.38
2018-08-22T23:05:01.954Z,99185.28
2018-08-22T23:07:33.885Z,99185.28
2018-08-22T23:10:05.597Z,99184.71
2018-08-22T23:12:48.924Z,99175.27
2018-08-22T23:15:23.209Z,99189.75
2018-08-22T23:17:55.062Z,99186.17
2018-08-22T23:20:44.648Z,99192.72
2018-08-22T23:23:30.864Z,99188.85
2018-08-22T23:26:09.648Z,99188.55
2018-08-22T23:28:38.805Z,99189.14
2018-08-22T23:31:08.195Z,99186.47
2018-08-22T23:33:37.421Z,99182.90
2018-08-22T23:36:06.615Z,99189.87
2018-08-22T23:38:37.466Z,99194.63
2018-08-22T23:41:06.618Z,99200.40
2018-08-22T23:43:41.788Z,99193.83
2018-08-22T23:46:12.376Z,99199.35
2018-08-22T23:48:41.859Z,99200.04
2018-08-22T23:51:13.102Z,99187.85
2018-08-22T23:53:45.232Z,99191.83
2018-08-22T23:56:18.215Z,99188.80
2018-08-22T23:58:48.426Z,99192.55
